Terminal Aerodrome Forecast
Issued by NWS

Home | Current Version | Previous Version | Text Only | Print | Product List | Glossary On
Versions: 1 2 3 4 5 6 7 8 9 10 11 12 13 14 15 16 17
000
FTUS41 KBOX 222104 AAA
TAFBAF
TAF AMD
KBAF 222104Z 2221/2318 30013KT P6SM BKN025
     FM222200 33011G27KT P6SM SCT025
     FM230500 32007KT P6SM SKC=

USA.gov is the U.S. government's official web portal to all federal, state and local government web resources and services.